ADDS METAR Data INFO
IDs: Format: Raw Decoded Include TAF

Data at: 1959 UTC 25 Feb 2018

KRWL 251953Z AUTO 23021G32KT 9SM FEW018 BKN025 OVC034 M07/M12 A2994 RMK AO2 PK WND 24043/1858 SLP195 T10671117 PWINO FZRANO $
KRWL 251915Z AUTO 24028G38KT 3SM HZ BKN020 OVC028 M07/M11 A2994 RMK AO2 PK WND 24043/1858 T10721111 PWINO FZRANO $
KRWL 251853Z AUTO 25035G44KT 1 1/4SM HZ OVC020 M07/M11 A2992 RMK AO2 PK WND 24044/1851 SLP188 T10721111 PWINO FZRANO $
KRWL 251800Z AUTO 25033G41KT 1SM HZ OVC016 M08/M12 A2990 RMK AO2 PK WND 25040/1800 T10781117 PWINO FZRANO $
KRWL 251753Z AUTO 25035G42KT 3/4SM HZ OVC016 M08/M12 A2990 RMK AO2 PK WND 25042/1747 SLP183 T10781122 11078 21122 52005 PWINO FZRANO $
KRWL 251751Z AUTO 25029G42KT 3/4SM HZ OVC016 M08/M12 A2989 RMK AO2 PK WND 25042/1747 PWINO FZRANO $
KRWL 251735Z AUTO 25034G42KT 1 1/4SM HZ OVC016 M08/M13 A2989 RMK AO2 PK WND 25042/1732 T10831128 PWINO FZRANO $
KRWL 251726Z AUTO 25028G35KT 2SM HZ OVC016 M08/M12 A2988 RMK AO2 PK WND 25037/1716 VIS 1 1/2V3 T10781122 PWINO FZRANO $
KRWL 251717Z AUTO 25031G37KT 3SM HZ BKN016 M08/M13 A2988 RMK AO2 PK WND 25037/1716 T10831128 PWINO FZRANO $
KRWL 251653Z AUTO 25029G36KT 3SM HZ SCT013 M09/M13 A2988 RMK AO2 PK WND 26036/1651 SLP177 T10891133 PWINO FZRANO $
KRWL 251553Z AUTO 25022G28KT 10SM OVC010 M10/M13 A2987 RMK AO2 PK WND 24029/1540 SLP178 T11001133 PWINO FZRANO $
KRWL 251551Z AUTO 25020KT 9SM OVC010 M10/M13 A2987 RMK AO2 PK WND 24029/1540 PWINO FZRANO $
KRWL 251511Z AUTO 25021G27KT 8SM BKN009 OVC016 M11/M14 A2986 RMK AO2 PK WND 25028/1500 T11111139 PWINO FZRANO $
KRWL 251453Z AUTO 25018G26KT 7SM BKN010 OVC015 M11/M14 A2985 RMK AO2 PK WND 24027/1426 SLP170 T11061139 51013 PWINO FZRANO $
KRWL 251435Z AUTO 24019G27KT 10SM OVC013 M12/M14 A2985 RMK AO2 PK WND 24027/1426 T11171144 PWINO FZRANO $
KRWL 251353Z AUTO 24018KT 10SM OVC015 M12/M15 A2985 RMK AO2 PK WND 25026/1255 SLP175 T11171150 PWINO FZRANO $
KRWL 251337Z AUTO 24018KT 10SM BKN013 M12/M16 A2985 RMK AO2 PK WND 25026/1255 T11221156 PWINO FZRANO $
KRWL 251253Z AUTO 24021KT 10SM CLR M12/M16 A2984 RMK AO2 PK WND 24030/1159 SLP173 T11221156 PWINO FZRANO $
KRWL 251153Z AUTO 25022G31KT 9SM CLR M12/M15 A2981 RMK AO2 PK WND 24031/1144 SLP157 T11171150 11094 21117 53003 PWINO FZRANO $
KRWL 251053Z AUTO 25022G27KT 10SM CLR M12/M15 A2979 RMK AO2 PK WND 25029/1001 SLP153 T11171150 PWINO FZRANO $
KRWL 250953Z AUTO 25020KT 10SM CLR M11/M14 A2980 RMK AO2 PK WND 26031/0940 SLP152 T11061139 PWINO FZRANO $
KRWL 250921Z AUTO 25022KT 10SM FEW017 M10/M13 A2980 RMK AO2 PK WND 25029/0858 T11001133 PWINO FZRANO $
KRWL 250853Z AUTO 24024G33KT 6SM HZ OVC020 M10/M13 A2980 RMK AO2 PK WND 23033/0845 SLP147 T11001133 55004 PWINO FZRANO $
KRWL 250837Z AUTO 25024KT 9SM BKN024 M10/M13 A2980 RMK AO2 PK WND 24030/0802 T11001133 PWINO FZRANO $
KRWL 250753Z AUTO 25019G26KT 10SM FEW050 M10/M13 A2979 RMK AO2 PK WND 25028/0728 SLP146 T11001128 PWINO FZRANO $
KRWL 250653Z AUTO 25016G23KT 10SM OVC046 M10/M13 A2980 RMK AO2 SLP154 T11001128 410831161 PWINO FZRANO $
KRWL 250553Z AUTO 24014KT 10SM OVC060 M10/M13 A2981 RMK AO2 SLP163 T11001128 11089 21100 51003 PWINO FZRANO $
KRWL 250453Z AUTO 25014KT 10SM OVC043 M09/M12 A2981 RMK AO2 PK WND 24028/0404 SLP160 T10941122 PWINO FZRANO $
KRWL 250353Z AUTO 25017G26KT 10SM OVC060 M09/M12 A2981 RMK AO2 PK WND 24028/0257 SLP167 T10941122 PWINO FZRANO $
KRWL 250253Z AUTO 25018G27KT 10SM OVC040 M09/M12 A2980 RMK AO2 PK WND 24029/0225 SLP165 T10891122 51007 PWINO FZRANO $
KRWL 250153Z AUTO 24015G23KT 10SM OVC070 M09/M12 A2980 RMK AO2 PK WND 24026/0110 SLP167 T10941122 PWINO FZRANO $
KRWL 250053Z AUTO 24019G25KT 10SM FEW020 BKN070 BKN080 M09/M12 A2978 RMK AO2 PK WND 24029/0010 SLP160 T10941122 PWINO FZRANO $
KRWL 242353Z AUTO 25016G27KT 9SM CLR M09/M14 A2978 RMK AO2 PK WND 25031/2343 SLP156 T10891139 11083 21111 53003 PWINO FZRANO $
KRWL 242337Z AUTO 25024G30KT 10SM SCT023 SCT030 M09/M14 A2977 RMK AO2 PK WND 25030/2337 T10891139 PWINO FZRANO $
KRWL 242253Z AUTO 25025G35KT 3SM HZ BKN021 BKN029 M08/M13 A2977 RMK AO2 PK WND 24035/2247 SLP152 T10831133 PWINO FZRANO $
KRWL 242245Z AUTO 25026G33KT 5SM HZ SCT023 BKN029 M08/M13 A2977 RMK AO2 PK WND 25033/2214 T10831133 PWINO FZRANO $
KRWL 242153Z AUTO 25020G32KT 7SM FEW022 BKN030 M08/M13 A2976 RMK AO2 PK WND 24034/2108 SLP141 T10831133 PWINO FZRANO $
KRWL 242150Z AUTO 24021G32KT 7SM FEW022 BKN030 M08/M13 A2976 RMK AO2 PK WND 24034/2108 PWINO FZRANO $
KRWL 242120Z AUTO 24019G32KT 3SM HZ SCT021 OVC028 M08/M13 A2978 RMK AO2 PK WND 24034/2108 T10831128 PWINO FZRANO $
KRWL 242116Z AUTO 25025G34KT 2 1/2SM HZ SCT020 OVC030 M09/M13 A2977 RMK AO2 PK WND 24034/2108 VIS 2V4 T10891133 PWINO FZRANO $
KRWL 242053Z AUTO 26021G33KT 3SM HZ FEW020 OVC030 M08/M13 A2979 RMK AO2 PK WND 25033/2000 SLP147 T10831128 56014 PWINO FZRANO $
KRWL 242050Z AUTO 25023G33KT 2 1/2SM HZ SCT020 BKN028 OVC033 M09/M12 A2979 RMK AO2 PK WND 25033/2000 VIS 1V5 PWINO FZRANO $
KRWL 242010Z AUTO 25025G32KT 3SM HZ BKN019 OVC025 M09/M13 A2982 RMK AO2 PK WND 25033/2000 T10941133 PWINO FZRANO $
KRWL 242001Z AUTO 25026G36KT 2 1/2SM HZ BKN021 OVC028 M09/M13 A2982 RMK AO2 PK WND 25033/2000 VIS 1 3/4V3 T10941133 PWINO FZRANO $
KRWL 241953Z AUTO 24026G36KT 1 1/2SM HZ BKN019 OVC029 M09/M13 A2983 RMK AO2 PK WND 25038/1912 SLP165 T10891133 PWINO FZRANO $
KRWL 241934Z AUTO 25023G31KT 1 1/2SM HZ BKN018 OVC027 M09/M13 A2982 RMK AO2 PK WND 25038/1912 VIS 1V2 1/2 T10941128 PWINO FZRANO $
KRWL 241917Z AUTO 25027G38KT 1/2SM HZ BKN017 OVC025 M09/M13 A2982 RMK AO2 PK WND 25038/1912 T10941133 PWINO FZRANO $
KRWL 241907Z AUTO 25030G37KT 1SM HZ VV019 M10/M13 A2983 RMK AO2 PK WND 26037/1907 T11001133 PWINO FZRANO $
KRWL 241853Z AUTO 25023G38KT 3/4SM HZ BKN018 OVC023 M10/M13 A2984 RMK AO2 PK WND 25038/1757 SLP175 T11001133 PWINO FZRANO $
KRWL 241835Z AUTO 25029G36KT 1 1/4SM HZ BKN018 OVC022 M10/M14 A2984 RMK AO2 PK WND 25038/1757 T11001139 PWINO FZRANO $
KRWL 241803Z AUTO 24026G38KT 3/4SM HZ VV017 M11/M14 A2984 RMK AO2 PK WND 25038/1757 T11061144 PWINO FZRANO $
KRWL 241753Z AUTO 25025G35KT 1SM HZ VV018 M11/M14 A2983 RMK AO2 PK WND 25038/1658 SLP171 T11111144 11111 21161 56005 PWINO FZRANO $
KRWL 241749Z AUTO 24024G35KT 1 1/2SM HZ BKN018 OVC025 M11/M15 A2983 RMK AO2 PK WND 25038/1658 PWINO FZRANO $
KRWL 241708Z AUTO 25023G36KT 3/4SM HZ VV020 M12/M15 A2983 RMK AO2 PK WND 25038/1658 T11171150 PWINO FZRANO $
KRWL 241701Z AUTO 25025G38KT 1SM HZ VV019 M12/M15 A2983 RMK AO2 PK WND 25038/1658 T11171150 PWINO FZRANO $
KRWL 241653Z AUTO 26024G34KT 3/4SM HZ VV020 M12/M15 A2983 RMK AO2 PK WND 26037/1615 SLP173 T11171150 PWINO FZRANO $
KRWL 241620Z AUTO 26026G37KT 1SM HZ BKN019 OVC080 M12/M16 A2983 RMK AO2 PK WND 26037/1615 T11221156 PWINO FZRANO $
KRWL 241612Z AUTO 26026G32KT 2 1/2SM HZ BKN021 OVC080 M12/M16 A2984 RMK AO2 PK WND 25032/1605 VIS 1V5 T11221156 PWINO FZRANO $
KRWL 241601Z AUTO 25021G32KT 3SM HZ BKN021 OVC080 M13/M16 A2984 RMK AO2 PK WND 25032/1558 T11281161 PWINO FZRANO $
KRWL 241553Z AUTO 25021G31KT 2 1/2SM HZ SCT019 BKN024 OVC080 M13/M17 A2985 RMK AO2 PK WND 25036/1523 VIS 1 1/4V5 SLP171 T11281167 PWINO FZRANO $
KRWL 241545Z AUTO 25025G32KT 3SM HZ SCT019 BKN024 OVC110 M13/M17 A2984 RMK AO2 PK WND 25036/1523 T11281167 PWINO FZRANO $
KRWL 241535Z AUTO 25025G31KT 2SM HZ FEW017 BKN024 BKN065 M13/M17 A2985 RMK AO2 PK WND 25036/1523 VIS 1V4 T11331167 PWINO FZRANO $
KRWL 241524Z AUTO 25025G36KT 1 3/4SM HZ SCT070 SCT080 M13/M17 A2985 RMK AO2 PK WND 25036/1523 T11331167 PWINO FZRANO $
KRWL 241514Z AUTO 25023G29KT 3SM HZ CLR M14/M17 A2984 RMK AO2 PK WND 24035/1459 T11391172 PWINO FZRANO $
KRWL 241453Z AUTO 25025G37KT 1SM HZ FEW120 M14/M18 A2982 RMK AO2 PK WND 26037/1448 SLP172 T11441178 56005 PWINO FZRANO $
KRWL 241444Z AUTO 25025G32KT 1 3/4SM HZ SCT120 M15/M18 A2982 RMK AO2 PK WND 25032/1441 T11501183 PWINO FZRANO $
KRWL 241417Z AUTO 24020G30KT 4SM HZ CLR M16/M19 A2983 RMK AO2 PK WND 25032/1354 T11561189 PWINO FZRANO $
KRWL 241407Z AUTO 24023G29KT 2SM HZ FEW007 M16/M19 A2983 RMK AO2 PK WND 25032/1354 T11561189 PWINO FZRANO $
KRWL 241401Z AUTO 24025G33KT 1SM HZ VV007 M16/M18 A2983 RMK AO2 PK WND 25032/1354 T11561183 PWINO FZRANO $
KRWL 241353Z AUTO 25027G35KT 3/4SM HZ VV005 M15/M18 A2982 RMK AO2 PK WND 25037/1342 SLP173 T11501183 PWINO FZRANO $
KRWL 241348Z AUTO 24025G37KT 1SM HZ VV007 M15/M18 A2982 RMK AO2 PK WND 25037/1342 PWINO FZRANO $
KRWL 241342Z AUTO 25029G37KT 2SM HZ FEW008 M15/M18 A2982 RMK AO2 PK WND 25037/1342 VIS 1V5 T11501183 PWINO FZRANO $
KRWL 241335Z AUTO 24022G34KT 1 3/4SM HZ FEW004 M16/M18 A2982 RMK AO2 PK WND 24034/1303 T11561183 PWINO FZRANO $
KRWL 241325Z AUTO 25024G32KT 2 1/2SM HZ FEW004 M15/M18 A2982 RMK AO2 PK WND 24034/1303 T11501178 PWINO FZRANO $
KRWL 241320Z AUTO 24022G32KT 3SM HZ CLR M15/M18 A2981 RMK AO2 PK WND 24034/1303 T11501183 PWINO FZRANO $
KRWL 241304Z AUTO 25028G34KT 1 3/4SM HZ CLR M16/M18 A2980 RMK AO2 PK WND 24034/1303 T11561183 PWINO FZRANO $
KRWL 241253Z AUTO 24022G27KT 4SM HZ CLR M16/M19 A2980 RMK AO2 PK WND 24027/1251 SLP163 T11561189 PWINO FZRANO $
KRWL 241230Z AUTO 23017KT 10SM SCT014 M16/M19 A2983 RMK AO2 T11561189 PWINO FZRANO $
KRWL 241211Z AUTO 25017KT 10SM BKN013 M16/M19 A2983 RMK AO2 T11561189 PWINO FZRANO $
KRWL 241153Z AUTO 25018KT 10SM SCT011 M14/M19 A2984 RMK AO2 PK WND 25027/1134 SLP169 T11441189 11106 21144 53008 PWINO FZRANO $
KRWL 241053Z AUTO 25021KT 6SM HZ BKN080 M14/M18 A2982 RMK AO2 PK WND 25034/1011 SLP163 T11391178 PWINO FZRANO $
KRWL 241025Z AUTO 25025G31KT 2 1/2SM HZ FEW080 M13/M17 A2981 RMK AO2 PK WND 25034/1011 T11331167 PWINO FZRANO $
KRWL 241001Z AUTO 25026G33KT 1 1/2SM HZ CLR M13/M16 A2981 RMK AO2 PK WND 25033/0955 VIS 1 1/4V2 T11281156 PWINO FZRANO $
KRWL 240953Z AUTO 26022G32KT 2SM HZ CLR M12/M15 A2982 RMK AO2 PK WND 26034/0854 SLP154 T11221150 PWINO FZRANO $
KRWL 240949Z AUTO 25026G32KT 2 1/2SM HZ CLR M12/M15 A2981 RMK AO2 PK WND 26034/0854 PWINO FZRANO $
KRWL 240853Z AUTO 25024G34KT 1 1/4SM HZ SCT100 M11/M13 A2982 RMK AO2 PK WND 26034/0848 SLP152 T11061133 58012 PWINO FZRANO $
KRWL 240848Z AUTO 26027G34KT 1 3/4SM HZ SCT100 M11/M13 A2982 RMK AO2 PK WND 26034/0848 PWINO FZRANO $
KRWL 240818Z AUTO 25019G25KT 9SM SCT008 M11/M14 A2983 RMK AO2 T11111139 PWINO FZRANO $
KRWL 240804Z AUTO 25018G24KT 10SM BKN008 M12/M14 A2984 RMK AO2 T11171139 PWINO FZRANO $